createdAt,value
2018-12-08T00:12:31.113Z,9.67
2018-12-08T00:31:40.321Z,9.70
2018-12-08T00:34:16.482Z,8.43
2018-12-08T00:36:52.770Z,9.37
2018-12-08T00:39:28.987Z,9.17
2018-12-08T00:42:05.061Z,8.53
2018-12-08T00:44:40.788Z,8.17
2018-12-08T00:47:16.981Z,7.77
2018-12-08T00:49:49.434Z,9.10
2018-12-08T00:52:25.736Z,9.27
2018-12-08T00:55:01.855Z,9.00
2018-12-08T00:57:37.942Z,8.90
2018-12-08T01:00:14.122Z,9.03
2018-12-08T01:02:50.193Z,8.77
2018-12-08T01:05:26.284Z,9.43
2018-12-08T01:08:02.598Z,9.07
2018-12-08T01:10:38.557Z,7.33
2018-12-08T01:13:14.681Z,8.20
2018-12-08T01:15:50.857Z,8.67
2018-12-08T01:18:27.065Z,8.40
2018-12-08T01:21:03.049Z,9.00
2018-12-08T01:23:39.217Z,9.77
2018-12-08T01:26:15.251Z,9.97
2018-12-08T01:28:51.461Z,9.10
2018-12-08T01:31:27.794Z,9.67
2018-12-08T01:34:03.909Z,9.03
2018-12-08T01:36:39.872Z,9.00
2018-12-08T01:39:16.174Z,9.37
2018-12-08T01:41:52.122Z,9.27
2018-12-08T01:44:28.201Z,9.10
2018-12-08T01:47:04.236Z,8.93
2018-12-08T01:49:40.453Z,9.93
2018-12-08T01:52:16.680Z,9.70
2018-12-08T01:54:52.846Z,9.03
2018-12-08T01:57:29.082Z,9.43
2018-12-08T02:00:05.755Z,8.40
2018-12-08T02:02:41.593Z,7.70
2018-12-08T02:05:17.676Z,8.57
2018-12-08T02:07:53.903Z,7.90
2018-12-08T02:10:30.129Z,8.10
2018-12-08T02:13:06.178Z,8.07
2018-12-08T02:15:42.560Z,8.33
2018-12-08T02:18:18.693Z,8.40
2018-12-08T02:20:54.948Z,7.40
2018-12-08T02:23:30.756Z,6.67
2018-12-08T02:26:06.760Z,6.43
2018-12-08T02:28:43.087Z,5.73
2018-12-08T02:31:19.133Z,6.50
2018-12-08T02:33:55.215Z,6.20
2018-12-08T02:36:31.270Z,6.10
2018-12-08T02:39:07.908Z,6.27
2018-12-08T02:41:40.483Z,5.93
2018-12-08T02:44:16.697Z,5.60
2018-12-08T02:46:52.977Z,5.63
2018-12-08T02:49:29.010Z,5.47
2018-12-08T02:52:04.955Z,5.67
2018-12-08T02:54:37.405Z,5.50
2018-12-08T02:57:13.889Z,5.00
2018-12-08T02:59:49.573Z,5.20
2018-12-08T03:02:22.246Z,4.87
2018-12-08T03:04:58.258Z,4.60
2018-12-08T03:07:34.640Z,5.03
2018-12-08T03:10:10.784Z,4.67
2018-12-08T03:12:47.173Z,4.43
2018-12-08T03:15:23.342Z,5.03
2018-12-08T03:17:59.489Z,6.37
2018-12-08T03:20:35.531Z,6.27
2018-12-08T03:23:11.812Z,4.73
2018-12-08T03:25:47.934Z,6.10
2018-12-08T03:28:24.052Z,6.07
2018-12-08T03:31:00.289Z,5.33
2018-12-08T03:33:36.499Z,5.07
2018-12-08T03:36:12.547Z,3.57
2018-12-08T03:38:45.020Z,2.80
2018-12-08T03:41:21.040Z,1.80
2018-12-08T03:43:57.337Z,1.30
2018-12-08T03:46:33.582Z,2.20
2018-12-08T03:49:09.759Z,2.53
2018-12-08T03:51:45.962Z,3.53
2018-12-08T03:54:18.308Z,4.20
2018-12-08T03:56:54.605Z,2.20
2018-12-08T03:59:30.802Z,2.40
2018-12-08T04:02:06.792Z,2.57
2018-12-08T04:04:42.926Z,3.90
2018-12-08T04:07:19.070Z,3.73
2018-12-08T04:09:55.202Z,1.87
2018-12-08T04:12:31.295Z,2.57
2018-12-08T04:15:07.836Z,3.27
2018-12-08T04:17:43.717Z,4.63
2018-12-08T04:20:19.771Z,3.10
2018-12-08T04:22:55.933Z,5.00
2018-12-08T04:25:32.040Z,5.23
2018-12-08T04:28:04.459Z,5.73
2018-12-08T04:30:40.653Z,7.40
2018-12-08T04:33:16.859Z,5.73
2018-12-08T04:35:54.661Z,6.17
2018-12-08T04:38:31.219Z,6.27
2018-12-08T04:41:07.441Z,4.20
2018-12-08T04:43:43.714Z,5.77
2018-12-08T04:46:20.134Z,8.43
2018-12-08T04:48:56.361Z,4.90
2018-12-08T04:51:28.743Z,6.33
2018-12-08T04:54:04.961Z,6.20
2018-12-08T04:56:40.989Z,6.23
2018-12-08T04:59:16.972Z,3.20
2018-12-08T05:01:53.085Z,4.40
2018-12-08T05:04:25.434Z,4.50
2018-12-08T05:06:58.148Z,5.27
2018-12-08T05:09:33.988Z,3.60
2018-12-08T05:12:06.396Z,4.53
2018-12-08T05:14:42.492Z,8.10
2018-12-08T05:17:18.680Z,4.67
2018-12-08T05:19:54.941Z,7.37
2018-12-08T05:22:30.985Z,6.43
2018-12-08T05:25:07.078Z,4.00
2018-12-08T05:27:42.884Z,7.07
2018-12-08T05:30:18.879Z,6.47
2018-12-08T05:32:54.888Z,7.43
2018-12-08T05:35:30.757Z,7.33
2018-12-08T05:38:07.013Z,8.30
2018-12-08T05:45:49.074Z,6.87
2018-12-08T05:48:25.332Z,4.77
2018-12-08T05:51:01.658Z,4.40
2018-12-08T05:53:37.824Z,5.33
2018-12-08T05:56:13.923Z,4.37
2018-12-08T05:58:49.957Z,3.60
2018-12-08T06:01:26.041Z,3.93
2018-12-08T06:03:58.358Z,3.40
2018-12-08T06:06:30.728Z,5.47
2018-12-08T06:09:04.228Z,6.47
2018-12-08T06:11:40.572Z,4.93
2018-12-08T06:14:16.644Z,4.87
2018-12-08T06:16:52.868Z,5.87
2018-12-08T06:19:29.073Z,4.20
2018-12-08T06:22:05.358Z,3.20
2018-12-08T06:24:41.388Z,7.30
2018-12-08T06:27:44.741Z,5.17
2018-12-08T06:30:20.988Z,4.00
2018-12-08T06:32:57.264Z,6.07
2018-12-08T06:35:35.058Z,5.50
2018-12-08T06:38:11.228Z,4.43
2018-12-08T06:40:47.294Z,7.53
2018-12-08T06:43:23.674Z,4.23
2018-12-08T06:46:30.902Z,6.13
2018-12-08T06:49:03.210Z,6.77
2018-12-08T06:51:39.457Z,5.50
2018-12-08T06:54:11.872Z,6.60
2018-12-08T06:56:48.167Z,6.17
2018-12-08T06:59:24.165Z,6.53
2018-12-08T07:02:00.259Z,4.70
2018-12-08T07:04:36.140Z,4.10
2018-12-08T07:07:12.072Z,4.10
2018-12-08T07:09:48.504Z,5.07
2018-12-08T07:12:24.522Z,5.23
2018-12-08T07:14:57.128Z,6.27
2018-12-08T07:17:32.774Z,4.53
2018-12-08T07:20:08.985Z,4.07
2018-12-08T07:22:44.853Z,4.17
2018-12-08T07:25:17.240Z,6.40
2018-12-08T07:27:53.444Z,5.57
2018-12-08T07:30:29.388Z,6.30
2018-12-08T07:33:05.553Z,5.03
2018-12-08T07:35:41.740Z,4.77
2018-12-08T07:38:17.789Z,4.10
2018-12-08T07:40:53.830Z,5.03
2018-12-08T07:43:29.969Z,4.20
2018-12-08T07:46:06.343Z,6.17
2018-12-08T07:48:42.602Z,4.10
2018-12-08T07:51:18.930Z,3.83
2018-12-08T07:53:55.059Z,5.20
2018-12-08T07:56:31.341Z,5.87
2018-12-08T07:59:07.500Z,3.90
2018-12-08T08:04:16.637Z,4.37
2018-12-08T08:06:48.953Z,3.83
2018-12-08T08:09:25.278Z,3.17
2018-12-08T08:12:01.279Z,3.43
2018-12-08T08:37:38.599Z,3.93
2018-12-08T08:40:14.736Z,5.70
2018-12-08T08:42:50.820Z,4.37
2018-12-08T08:45:26.990Z,3.77
2018-12-08T08:48:03.005Z,3.63
2018-12-08T08:50:39.047Z,4.47
2018-12-08T08:53:15.053Z,6.10
2018-12-08T08:55:54.305Z,5.37
2018-12-08T08:58:30.976Z,3.87
2018-12-08T09:01:03.563Z,3.67
2018-12-08T09:03:39.796Z,5.30
2018-12-08T09:06:16.054Z,4.97
2018-12-08T09:08:52.237Z,4.90
2018-12-08T09:11:31.260Z,4.70
2018-12-08T09:14:13.187Z,7.50
2018-12-08T09:16:49.747Z,5.13
2018-12-08T09:19:25.978Z,4.60
2018-12-08T09:22:05.086Z,5.97
2018-12-08T09:24:41.813Z,5.13
2018-12-08T09:27:21.287Z,4.80
2018-12-08T09:29:58.086Z,5.37
2018-12-08T09:32:34.243Z,3.70
2018-12-08T09:35:10.445Z,5.33
2018-12-08T09:37:46.367Z,5.53
2018-12-08T10:03:29.242Z,6.43
2018-12-08T10:06:05.259Z,8.67
2018-12-08T10:08:44.420Z,11.70
2018-12-08T10:11:20.450Z,9.47
2018-12-08T10:13:59.819Z,11.37
2018-12-08T10:16:35.795Z,9.63
2018-12-08T10:19:14.880Z,10.80
2018-12-08T10:21:51.088Z,19.73
2018-12-08T10:24:30.337Z,18.40
2018-12-08T10:27:06.468Z,18.73
2018-12-08T10:29:45.707Z,20.70
2018-12-08T10:32:21.622Z,10.83
2018-12-08T10:35:00.578Z,14.67
2018-12-08T10:37:36.561Z,10.63
2018-12-08T10:40:15.585Z,8.83
2018-12-08T10:42:51.513Z,8.00
2018-12-08T10:45:31.217Z,12.13
2018-12-08T10:48:07.782Z,7.83
2018-12-08T10:50:47.583Z,9.07
2018-12-08T10:53:23.801Z,13.17
2018-12-08T10:56:02.857Z,8.10
2018-12-08T10:58:39.128Z,10.67
2018-12-08T11:01:21.596Z,9.10
2018-12-08T11:03:58.829Z,9.73
2018-12-08T11:06:34.780Z,11.70
2018-12-08T11:09:10.663Z,6.00
2018-12-08T11:11:46.893Z,7.37
2018-12-08T11:14:23.079Z,9.70
2018-12-08T11:16:59.317Z,10.03
2018-12-08T11:19:35.404Z,6.63
2018-12-08T11:22:11.684Z,6.57
2018-12-08T11:24:48.082Z,6.77
2018-12-08T11:27:20.377Z,8.80
2018-12-08T11:29:56.696Z,10.70
2018-12-08T11:32:32.857Z,8.03
2018-12-08T11:35:09.056Z,7.60
2018-12-08T11:37:45.366Z,5.17
2018-12-08T11:40:21.510Z,7.63
2018-12-08T11:42:57.621Z,5.13
2018-12-08T11:45:33.648Z,7.10
2018-12-08T11:48:09.863Z,6.67
2018-12-08T11:50:42.297Z,8.40
2018-12-08T11:53:18.292Z,8.03
2018-12-08T11:55:54.373Z,6.53
2018-12-08T11:58:30.449Z,5.87
2018-12-08T12:01:06.955Z,5.53
2018-12-08T12:03:42.964Z,8.23
2018-12-08T12:06:18.955Z,6.07
2018-12-08T12:08:55.539Z,6.57
2018-12-08T12:11:31.481Z,6.50
2018-12-08T12:14:07.581Z,6.57
2018-12-08T12:16:43.493Z,7.53
2018-12-08T12:19:19.452Z,5.20
2018-12-08T12:21:55.500Z,6.03
2018-12-08T12:24:27.937Z,4.77
2018-12-08T12:27:04.184Z,5.93
2018-12-08T12:29:40.408Z,8.57
2018-12-08T12:32:16.386Z,7.00
2018-12-08T12:34:52.504Z,9.77
2018-12-08T12:37:28.954Z,8.03
2018-12-08T12:40:04.965Z,4.80
2018-12-08T12:58:04.440Z,9.17
2018-12-08T13:03:15.713Z,7.20
2018-12-08T13:05:51.788Z,6.10
2018-12-08T13:08:27.666Z,5.60
2018-12-08T13:28:56.674Z,6.23
2018-12-08T13:39:09.407Z,7.77
2018-12-08T13:41:46.506Z,6.80
2018-12-08T13:44:39.932Z,7.13
2018-12-08T13:47:16.431Z,10.10
2018-12-08T13:49:52.944Z,10.77
2018-12-08T13:52:29.347Z,5.40
2018-12-08T13:55:08.599Z,6.53
2018-12-08T13:57:44.244Z,8.20
2018-12-08T14:00:23.826Z,8.00
2018-12-08T14:03:00.247Z,6.93
2018-12-08T14:05:37.227Z,8.17
2018-12-08T14:08:13.413Z,6.23
2018-12-08T14:10:49.291Z,5.67
2018-12-08T14:13:25.664Z,6.50
2018-12-08T14:16:05.028Z,6.70
2018-12-08T14:18:40.850Z,6.93
2018-12-08T14:21:20.226Z,6.40
2018-12-08T14:23:52.910Z,10.27
2018-12-08T14:26:29.127Z,6.67
2018-12-08T14:29:04.974Z,8.10
2018-12-08T14:31:41.662Z,5.17
2018-12-08T14:34:18.622Z,6.23
2018-12-08T14:36:51.261Z,8.03
2018-12-08T14:39:27.366Z,7.57
2018-12-08T14:42:03.281Z,7.33
2018-12-08T14:44:40.146Z,7.43
2018-12-08T14:47:16.596Z,7.60
2018-12-08T14:49:52.770Z,10.30
2018-12-08T14:52:30.382Z,8.37
2018-12-08T14:55:07.920Z,8.37
2018-12-08T14:57:40.349Z,6.53
2018-12-08T15:00:16.702Z,8.77
2018-12-08T15:02:52.574Z,9.10
2018-12-08T15:05:28.408Z,12.50
2018-12-08T15:08:00.976Z,16.13
2018-12-08T15:10:36.971Z,17.43
2018-12-08T15:13:13.049Z,11.80
2018-12-08T15:15:49.231Z,11.80
2018-12-08T15:18:25.429Z,15.77
2018-12-08T15:21:01.663Z,12.60
2018-12-08T15:23:37.857Z,13.50
2018-12-08T15:26:13.936Z,12.83
2018-12-08T15:28:50.138Z,13.10
2018-12-08T15:31:26.352Z,11.03
2018-12-08T15:34:02.374Z,10.03
2018-12-08T15:36:38.638Z,13.00
2018-12-08T15:39:14.965Z,13.00
2018-12-08T15:41:51.029Z,14.87
2018-12-08T15:44:27.465Z,14.70
2018-12-08T15:47:03.593Z,14.53
2018-12-08T15:49:39.904Z,19.40
2018-12-08T15:52:15.972Z,24.83
2018-12-08T15:54:48.340Z,18.53
2018-12-08T15:57:24.540Z,17.33
2018-12-08T16:00:00.882Z,12.00
2018-12-08T16:02:36.769Z,7.33
2018-12-08T16:05:13.181Z,11.10
2018-12-08T16:07:49.516Z,9.33
2018-12-08T16:10:25.481Z,8.63
2018-12-08T16:12:57.845Z,9.27
2018-12-08T16:15:33.856Z,10.33
2018-12-08T16:18:10.036Z,9.53
2018-12-08T16:20:46.249Z,14.70
2018-12-08T16:23:22.394Z,13.20
2018-12-08T16:25:58.692Z,12.50
2018-12-08T16:28:34.653Z,10.23
2018-12-08T16:31:10.837Z,7.53
2018-12-08T16:33:47.009Z,11.77
2018-12-08T16:36:23.348Z,9.30
2018-12-08T16:38:59.376Z,7.73
2018-12-08T16:41:35.477Z,14.63
2018-12-08T16:44:07.977Z,12.33
2018-12-08T16:46:44.328Z,13.40
2018-12-08T16:49:20.573Z,13.17
2018-12-08T16:51:56.894Z,22.83
2018-12-08T16:54:33.197Z,25.50
2018-12-08T16:57:09.980Z,16.40
2018-12-08T16:59:45.777Z,18.17
2018-12-08T17:02:21.868Z,17.83
2018-12-08T17:04:58.332Z,15.63
2018-12-08T17:07:35.122Z,18.57
2018-12-08T17:10:11.409Z,19.00
2018-12-08T17:12:47.471Z,23.37
2018-12-08T17:15:23.513Z,21.17
2018-12-08T17:17:59.870Z,16.33
2018-12-08T17:20:35.822Z,17.50
2018-12-08T17:23:11.948Z,16.10
2018-12-08T17:25:48.041Z,13.40
2018-12-08T17:28:24.271Z,12.70
2018-12-08T17:31:00.325Z,12.40
2018-12-08T17:33:36.281Z,13.90
2018-12-08T17:36:12.774Z,15.60
2018-12-08T17:38:51.814Z,16.87
2018-12-08T17:41:28.049Z,15.13
2018-12-08T17:44:05.455Z,16.27
2018-12-08T17:46:41.356Z,17.40
2018-12-08T17:49:17.593Z,18.63
2018-12-08T17:51:53.766Z,18.60
2018-12-08T17:54:29.804Z,24.23
2018-12-08T17:57:05.869Z,23.00
2018-12-08T17:59:42.081Z,17.90
2018-12-08T18:02:18.217Z,16.50
2018-12-08T18:04:54.407Z,73.83
2018-12-08T18:07:30.639Z,14.23
2018-12-08T18:10:08.358Z,14.77
2018-12-08T18:12:40.895Z,19.10
2018-12-08T18:15:17.416Z,24.57
2018-12-08T18:17:50.286Z,24.17
2018-12-08T18:20:26.839Z,22.77
2018-12-08T18:23:03.237Z,16.17
2018-12-08T18:25:40.615Z,11.83
2018-12-08T18:28:20.261Z,8.97
2018-12-08T18:34:43.780Z,12.07
2018-12-08T18:37:29.918Z,13.10
2018-12-08T18:40:06.634Z,12.57
2018-12-08T18:42:52.999Z,13.77
2018-12-08T18:45:29.389Z,15.43
2018-12-08T18:48:20.851Z,12.90
2018-12-08T19:04:52.573Z,12.10
2018-12-08T19:07:28.657Z,8.40
2018-12-08T19:10:05.106Z,10.60
2018-12-08T19:12:41.228Z,10.27
2018-12-08T19:15:23.300Z,8.23
2018-12-08T19:18:00.790Z,9.57
2018-12-08T19:20:34.266Z,12.17
2018-12-08T19:23:10.824Z,11.43
2018-12-08T19:25:47.031Z,11.67
2018-12-08T19:28:23.225Z,11.77
2018-12-08T19:31:08.892Z,10.13
2018-12-08T19:40:50.135Z,9.80
2018-12-08T19:43:27.475Z,9.33
2018-12-08T19:46:07.815Z,9.67
2018-12-08T19:48:45.608Z,9.60
2018-12-08T19:51:24.974Z,10.00
2018-12-08T19:53:58.055Z,8.57
2018-12-08T19:56:41.036Z,8.03
2018-12-08T19:59:20.621Z,7.67
2018-12-08T20:05:31.627Z,9.27
2018-12-08T20:08:09.798Z,8.80
2018-12-08T20:10:50.175Z,8.20
2018-12-08T20:13:27.104Z,7.63
2018-12-08T20:16:15.922Z,6.00
2018-12-08T20:19:31.948Z,5.63
2018-12-08T20:22:21.341Z,7.13
2018-12-08T20:24:59.119Z,7.13
2018-12-08T20:27:40.980Z,5.87
2018-12-08T20:30:18.672Z,6.73
2018-12-08T20:32:58.714Z,5.80
2018-12-08T20:35:35.521Z,6.70
2018-12-08T20:38:14.771Z,6.57
2018-12-08T20:40:47.823Z,6.97
2018-12-08T20:43:27.168Z,5.27
2018-12-08T20:46:03.664Z,7.97
2018-12-08T20:49:08.873Z,5.53
2018-12-08T20:51:44.409Z,5.50
2018-12-08T20:54:25.643Z,7.33
2018-12-08T20:57:02.249Z,5.93
2018-12-08T20:59:41.560Z,6.00
2018-12-08T21:02:15.133Z,7.63
2018-12-08T21:05:05.183Z,8.67
2018-12-08T21:07:41.688Z,8.40
2018-12-08T21:10:20.846Z,7.03
2018-12-08T21:12:58.630Z,7.93
2018-12-08T21:15:51.425Z,6.27
2018-12-08T21:18:28.324Z,4.97
2018-12-08T21:21:08.166Z,4.70
2018-12-08T21:23:41.391Z,6.13
2018-12-08T21:26:46.488Z,6.30
2018-12-08T21:29:20.654Z,9.20
2018-12-08T21:32:00.604Z,9.87
2018-12-08T21:34:33.562Z,11.33
2018-12-08T21:37:14.580Z,11.17
2018-12-08T21:39:51.777Z,12.70
2018-12-08T21:42:31.399Z,7.63
2018-12-08T21:45:08.668Z,7.13
2018-12-08T21:47:49.574Z,5.00
2018-12-08T21:50:26.639Z,7.57
2018-12-08T21:53:17.555Z,7.87
2018-12-08T21:56:01.363Z,5.83
2018-12-08T21:58:41.553Z,6.00
2018-12-08T22:01:14.270Z,6.70
2018-12-08T22:03:53.293Z,6.40
2018-12-08T22:06:30.417Z,7.77
2018-12-08T22:09:09.708Z,7.10
2018-12-08T22:11:45.831Z,8.57
2018-12-08T22:14:25.040Z,11.33
2018-12-08T22:31:01.740Z,6.00
2018-12-08T22:33:40.687Z,5.57
2018-12-08T22:36:17.300Z,6.47
2018-12-08T22:38:56.609Z,5.47
2018-12-08T22:41:32.869Z,5.57
2018-12-08T22:44:12.064Z,4.67
2018-12-08T22:46:48.519Z,5.63
2018-12-08T22:49:27.419Z,5.23
2018-12-08T22:52:03.852Z,5.80
2018-12-08T22:54:45.719Z,6.17
2018-12-08T22:57:22.402Z,6.23
2018-12-08T23:00:02.239Z,5.50
2018-12-08T23:02:38.535Z,6.30
2018-12-08T23:05:17.625Z,5.77
2018-12-08T23:07:53.836Z,9.47
2018-12-08T23:10:32.942Z,11.77
2018-12-08T23:13:09.138Z,10.70
2018-12-08T23:15:51.978Z,10.87
2018-12-08T23:18:28.114Z,10.40
2018-12-08T23:21:07.084Z,9.80
2018-12-08T23:23:43.368Z,16.10
2018-12-08T23:26:22.342Z,14.90
2018-12-08T23:28:58.621Z,10.53
2018-12-08T23:31:37.653Z,8.87
2018-12-08T23:34:13.998Z,6.80
2018-12-08T23:36:53.027Z,7.10
2018-12-08T23:39:29.434Z,6.87
2018-12-08T23:42:08.414Z,6.37
2018-12-08T23:44:44.549Z,5.60
2018-12-08T23:47:23.900Z,6.87
2018-12-08T23:49:59.806Z,4.03
2018-12-08T23:52:38.841Z,5.50
2018-12-08T23:55:15.138Z,5.43
2018-12-08T23:57:54.184Z,6.13
